Baie-D'Urfe, Canada
Current Conditions -  °F | °C
As of 5:00 AM on Thursday 27 Nov 2014 (Local Time) from CYUL Reporting Station
Overcast Overcast  
Wind Chill: 18°   Ceiling: 3000
Heat Index: 28°   Visibility: 15mi
Dew Point: 18°   Wind: 12mph
Humidity: 64%   Direction: 360°N
Pressure: 30"   Gusts: NA
Location:  45.4°N, 73.92°W
Report Text: CYUL 271000Z 36010KT 15SM OVC030 M02/M08 A3000 RMK SC8 SLP161
Loading
Personal Weather Stations






























Interactive Weather Map New forecast layout! Learn more

10-Day Weather Forecast

Advertisements
Track Severe Weather on mobile